createdAt,value
2018-06-12T00:00:31.984Z,100.00
2018-06-12T00:02:59.173Z,100.00
2018-06-12T00:05:26.393Z,100.00
2018-06-12T00:07:53.580Z,100.00
2018-06-12T00:10:20.827Z,100.00
2018-06-12T00:12:48.030Z,100.00
2018-06-12T00:15:15.259Z,100.00
2018-06-12T00:17:42.456Z,100.00
2018-06-12T00:20:09.682Z,100.00
2018-06-12T00:22:36.853Z,100.00
2018-06-12T00:25:04.085Z,100.00
2018-06-12T00:27:31.680Z,100.00
2018-06-12T00:29:58.834Z,99.95
2018-06-12T00:32:26.025Z,100.00
2018-06-12T00:34:53.201Z,100.00
2018-06-12T00:37:20.369Z,100.00
2018-06-12T00:39:47.512Z,100.00
2018-06-12T00:42:14.712Z,100.00
2018-06-12T00:44:41.830Z,99.68
2018-06-12T00:47:09.016Z,99.25
2018-06-12T00:49:36.187Z,100.00
2018-06-12T00:52:03.383Z,99.75
2018-06-12T00:54:30.536Z,98.68
2018-06-12T00:57:05.696Z,99.17
2018-06-12T00:59:32.892Z,99.71
2018-06-12T01:02:00.017Z,99.22
2018-06-12T01:04:27.185Z,99.65
2018-06-12T01:06:54.331Z,98.97
2018-06-12T01:09:21.597Z,98.93
2018-06-12T01:11:48.741Z,98.44
2018-06-12T01:14:15.921Z,98.56
2018-06-12T01:16:43.084Z,99.11
2018-06-12T01:19:10.256Z,99.29
2018-06-12T01:21:37.412Z,98.50
2018-06-12T01:24:04.583Z,98.34
2018-06-12T01:26:31.742Z,98.83
2018-06-12T01:28:58.928Z,98.90
2018-06-12T01:31:26.143Z,98.54
2018-06-12T01:33:53.287Z,97.91
2018-06-12T01:36:20.537Z,98.34
2018-06-12T01:38:47.732Z,98.69
2018-06-12T01:41:14.939Z,98.35
2018-06-12T01:43:42.065Z,98.04
2018-06-12T01:46:09.211Z,97.51
2018-06-12T01:48:36.418Z,98.08
2018-06-12T01:51:03.545Z,98.17
2018-06-12T01:53:30.685Z,98.69
2018-06-12T01:55:57.786Z,98.89
2018-06-12T01:58:24.926Z,98.22
2018-06-12T02:00:52.068Z,98.09
2018-06-12T02:03:19.210Z,98.42
2018-06-12T02:05:46.406Z,97.71
2018-06-12T02:08:13.617Z,98.32
2018-06-12T02:10:40.757Z,98.06
2018-06-12T02:13:07.899Z,98.18
2018-06-12T02:15:35.158Z,97.99
2018-06-12T02:18:02.363Z,97.90
2018-06-12T02:20:29.588Z,98.11
2018-06-12T02:22:56.863Z,98.63
2018-06-12T02:25:24.038Z,98.53
2018-06-12T02:27:51.216Z,98.15
2018-06-12T02:30:18.332Z,97.58
2018-06-12T02:32:45.505Z,97.93
2018-06-12T02:35:12.668Z,97.33
2018-06-12T02:37:39.823Z,97.22
2018-06-12T02:40:06.968Z,96.54
2018-06-12T02:42:34.172Z,95.02
2018-06-12T02:45:01.375Z,92.14
2018-06-12T02:47:28.543Z,93.33
2018-06-12T02:49:55.690Z,92.87
2018-06-12T02:52:22.842Z,93.38
2018-06-12T02:54:49.972Z,94.71
2018-06-12T02:57:17.117Z,95.09
2018-06-12T02:59:44.275Z,95.39
2018-06-12T03:02:11.449Z,96.38
2018-06-12T03:04:38.570Z,95.70
2018-06-12T03:07:05.752Z,95.17
2018-06-12T03:09:32.916Z,95.16
2018-06-12T03:12:00.120Z,95.74
2018-06-12T03:14:27.289Z,95.87
2018-06-12T03:16:54.490Z,96.79
2018-06-12T03:19:21.726Z,96.66
2018-06-12T03:21:48.930Z,96.88
2018-06-12T03:24:16.078Z,97.17
2018-06-12T03:26:43.187Z,97.24
2018-06-12T03:29:10.369Z,97.74
2018-06-12T03:31:37.563Z,97.43
2018-06-12T03:34:04.738Z,96.81
2018-06-12T03:36:31.957Z,97.02
2018-06-12T03:38:59.151Z,97.39
2018-06-12T03:41:26.325Z,97.00
2018-06-12T03:43:53.524Z,96.88
2018-06-12T03:46:20.705Z,96.15
2018-06-12T03:48:47.883Z,96.13
2018-06-12T03:51:15.087Z,96.00
2018-06-12T03:53:42.232Z,95.95
2018-06-12T03:56:09.396Z,96.02
2018-06-12T03:58:36.548Z,95.97
2018-06-12T04:01:03.799Z,95.69
2018-06-12T04:03:30.964Z,94.03
2018-06-12T04:05:58.149Z,92.55
2018-06-12T04:08:25.327Z,91.76
2018-06-12T04:10:52.489Z,93.18
2018-06-12T04:13:19.957Z,91.98
2018-06-12T04:15:47.173Z,93.63
2018-06-12T04:18:14.374Z,95.58
2018-06-12T04:20:41.520Z,95.59
2018-06-12T04:23:08.719Z,96.09
2018-06-12T04:25:35.901Z,95.13
2018-06-12T04:28:03.145Z,94.70
2018-06-12T04:30:30.310Z,94.43
2018-06-12T04:32:57.459Z,94.05
2018-06-12T04:35:24.619Z,93.11
2018-06-12T04:37:51.742Z,91.76
2018-06-12T04:40:18.888Z,91.16
2018-06-12T04:42:46.039Z,92.49
2018-06-12T04:45:13.185Z,92.31
2018-06-12T04:47:40.351Z,93.64
2018-06-12T04:50:07.517Z,93.65
2018-06-12T04:52:34.665Z,93.25
2018-06-12T04:55:01.780Z,92.74
2018-06-12T04:57:28.889Z,92.38
2018-06-12T04:59:56.003Z,92.11
2018-06-12T05:02:23.100Z,92.92
2018-06-12T05:04:50.200Z,94.08
2018-06-12T05:07:17.332Z,94.36
2018-06-12T05:09:44.431Z,94.72
2018-06-12T05:12:11.570Z,95.46
2018-06-12T05:14:38.720Z,94.95
2018-06-12T05:17:05.869Z,95.80
2018-06-12T05:19:33.058Z,95.40
2018-06-12T05:22:00.249Z,95.07
2018-06-12T05:24:27.563Z,94.40
2018-06-12T05:26:54.938Z,94.11
2018-06-12T05:29:22.025Z,93.94
2018-06-12T05:31:49.112Z,93.37
2018-06-12T05:34:16.242Z,93.37
2018-06-12T05:36:43.423Z,93.36
2018-06-12T05:39:11.044Z,93.92
2018-06-12T05:41:38.765Z,93.97
2018-06-12T05:44:05.872Z,94.15
2018-06-12T05:46:33.016Z,93.41
2018-06-12T05:49:00.163Z,93.46
2018-06-12T05:51:27.333Z,92.82
2018-06-12T05:53:54.434Z,92.48
2018-06-12T05:56:21.576Z,91.91
2018-06-12T05:58:48.738Z,92.03
2018-06-12T06:01:15.918Z,91.39
2018-06-12T06:03:43.083Z,91.29
2018-06-12T06:06:10.216Z,92.32
2018-06-12T06:08:37.344Z,91.55
2018-06-12T06:11:04.487Z,90.96
2018-06-12T06:13:31.612Z,91.04
2018-06-12T06:15:58.746Z,89.72
2018-06-12T06:18:25.943Z,88.89
2018-06-12T06:20:53.043Z,88.58
2018-06-12T06:23:20.231Z,88.00
2018-06-12T06:25:47.424Z,88.48
2018-06-12T06:28:14.552Z,88.04
2018-06-12T06:30:41.689Z,88.24
2018-06-12T06:33:08.828Z,87.70
2018-06-12T06:35:36.033Z,86.92
2018-06-12T06:38:03.203Z,85.68
2018-06-12T06:40:30.309Z,86.80
2018-06-12T06:42:57.526Z,84.69
2018-06-12T06:45:24.588Z,84.32
2018-06-12T06:47:51.797Z,84.36
2018-06-12T06:50:18.968Z,83.51
2018-06-12T06:52:46.132Z,83.78
2018-06-12T06:55:13.322Z,83.63
2018-06-12T06:57:40.508Z,82.61
2018-06-12T07:00:07.685Z,81.92
2018-06-12T07:02:34.850Z,82.68
2018-06-12T07:05:02.014Z,82.87
2018-06-12T07:07:29.181Z,83.19
2018-06-12T07:09:56.395Z,83.15
2018-06-12T07:12:23.556Z,85.56
2018-06-12T07:14:50.725Z,86.22
2018-06-12T07:17:17.963Z,87.02
2018-06-12T07:19:45.139Z,86.82
2018-06-12T07:22:12.304Z,86.29
2018-06-12T07:24:39.477Z,86.61
2018-06-12T07:27:06.693Z,86.36
2018-06-12T07:29:33.858Z,87.50
2018-06-12T07:32:01.480Z,87.13
2018-06-12T07:34:28.726Z,87.65
2018-06-12T07:36:55.888Z,85.79
2018-06-12T07:39:23.139Z,83.74
2018-06-12T07:41:50.333Z,83.97
2018-06-12T07:44:17.565Z,83.54
2018-06-12T07:46:44.733Z,81.71
2018-06-12T07:49:11.886Z,80.05
2018-06-12T07:51:39.039Z,80.48
2018-06-12T07:54:06.224Z,82.23
2018-06-12T07:56:33.450Z,79.68
2018-06-12T07:59:00.645Z,81.76
2018-06-12T08:01:28.168Z,81.64
2018-06-12T08:03:55.353Z,84.48
2018-06-12T08:06:22.550Z,83.91
2018-06-12T08:08:49.739Z,83.57
2018-06-12T08:11:16.888Z,82.93
2018-06-12T08:13:44.048Z,82.64
2018-06-12T08:16:11.233Z,79.63
2018-06-12T08:18:38.524Z,80.31
2018-06-12T08:21:05.621Z,79.31
2018-06-12T08:23:32.808Z,80.95
2018-06-12T08:25:59.969Z,79.83
2018-06-12T08:28:27.137Z,78.85
2018-06-12T08:30:54.278Z,78.92
2018-06-12T08:33:21.505Z,77.07
2018-06-12T08:35:48.713Z,77.93
2018-06-12T08:38:15.884Z,76.81
2018-06-12T08:40:42.991Z,80.12
2018-06-12T08:43:10.164Z,77.98
2018-06-12T08:45:37.375Z,76.73
2018-06-12T08:48:04.652Z,76.81
2018-06-12T08:50:31.892Z,76.59
2018-06-12T08:52:59.040Z,76.25
2018-06-12T08:55:26.210Z,76.56
2018-06-12T08:57:53.330Z,77.55
2018-06-12T09:00:20.469Z,78.39
2018-06-12T09:02:47.636Z,78.27
2018-06-12T09:05:14.839Z,76.85
2018-06-12T09:07:42.005Z,77.04
2018-06-12T09:10:09.204Z,77.62
2018-06-12T09:12:36.374Z,77.19
2018-06-12T09:15:03.691Z,77.34
2018-06-12T09:17:30.920Z,77.11
2018-06-12T09:19:58.143Z,75.77
2018-06-12T09:22:25.277Z,75.63
2018-06-12T09:24:52.416Z,74.45
2018-06-12T09:27:19.624Z,75.92
2018-06-12T09:29:46.836Z,76.16
2018-06-12T09:32:14.024Z,76.61
2018-06-12T09:34:41.190Z,77.46
2018-06-12T09:37:08.334Z,75.90
2018-06-12T09:39:35.480Z,75.99
2018-06-12T09:42:02.660Z,74.64
2018-06-12T09:44:29.835Z,74.87
2018-06-12T09:46:56.995Z,74.73
2018-06-12T09:49:24.181Z,76.27
2018-06-12T09:51:51.348Z,77.27
2018-06-12T09:54:18.516Z,75.82
2018-06-12T09:56:45.672Z,76.04
2018-06-12T09:59:12.808Z,77.38
2018-06-12T10:01:39.949Z,77.37
2018-06-12T10:04:07.179Z,77.93
2018-06-12T10:06:34.352Z,77.72
2018-06-12T10:09:01.536Z,77.81
2018-06-12T10:11:28.720Z,79.83
2018-06-12T10:13:55.899Z,77.51
2018-06-12T10:16:23.065Z,78.26
2018-06-12T10:18:50.318Z,78.74
2018-06-12T10:21:17.523Z,76.85
2018-06-12T10:23:44.688Z,77.35
2018-06-12T10:26:11.929Z,79.79
2018-06-12T10:28:39.135Z,79.65
2018-06-12T10:31:06.354Z,78.67
2018-06-12T10:33:33.545Z,77.88
2018-06-12T10:36:00.745Z,79.06
2018-06-12T10:38:27.930Z,79.73
2018-06-12T10:40:55.132Z,79.84
2018-06-12T10:43:22.353Z,79.41
2018-06-12T10:45:49.521Z,80.33
2018-06-12T10:48:16.735Z,78.84
2018-06-12T10:50:43.946Z,79.88
2018-06-12T10:53:11.132Z,79.35
2018-06-12T10:55:38.363Z,78.80
2018-06-12T10:58:05.636Z,78.73
2018-06-12T11:00:32.879Z,79.07
2018-06-12T11:03:00.080Z,79.82
2018-06-12T11:05:27.257Z,80.77
2018-06-12T11:07:54.479Z,81.39
2018-06-12T11:10:21.753Z,80.86
2018-06-12T11:12:48.964Z,79.42
2018-06-12T11:15:16.181Z,80.83
2018-06-12T11:17:43.408Z,80.25
2018-06-12T11:20:10.687Z,80.70
2018-06-12T11:22:37.897Z,80.92
2018-06-12T11:25:05.172Z,81.19
2018-06-12T11:27:32.444Z,81.13
2018-06-12T11:29:59.675Z,81.40
2018-06-12T11:32:26.867Z,81.18
2018-06-12T11:34:54.128Z,80.72
2018-06-12T11:37:21.353Z,81.15
2018-06-12T11:39:48.577Z,80.59
2018-06-12T11:42:15.738Z,81.36
2018-06-12T11:44:42.969Z,81.73
2018-06-12T11:47:10.170Z,81.80
2018-06-12T11:49:37.385Z,80.99
2018-06-12T11:52:04.776Z,81.39
2018-06-12T11:54:31.962Z,81.72
2018-06-12T11:56:59.161Z,80.86
2018-06-12T11:59:26.379Z,81.38
2018-06-12T12:01:53.609Z,80.93
2018-06-12T12:04:20.858Z,81.19
2018-06-12T12:06:48.057Z,81.48
2018-06-12T12:09:15.252Z,80.83
2018-06-12T12:11:42.473Z,80.60
2018-06-12T12:14:10.472Z,79.11
2018-06-12T12:16:37.752Z,78.98
2018-06-12T12:19:04.958Z,78.70
2018-06-12T12:21:32.157Z,77.49
2018-06-12T12:23:59.349Z,75.52
2018-06-12T12:26:26.653Z,72.77
2018-06-12T12:28:53.899Z,74.67
2018-06-12T12:31:21.145Z,71.31
2018-06-12T12:33:48.373Z,74.65
2018-06-12T12:36:15.589Z,74.86
2018-06-12T12:38:42.826Z,73.98
2018-06-12T12:41:10.055Z,74.53
2018-06-12T12:43:37.350Z,73.41
2018-06-12T12:46:04.636Z,74.03
2018-06-12T12:48:31.833Z,70.79
2018-06-12T12:50:59.007Z,70.67
2018-06-12T12:53:26.204Z,71.89
2018-06-12T12:55:53.491Z,69.35
2018-06-12T12:58:20.738Z,69.54
2018-06-12T13:00:47.958Z,69.95
2018-06-12T13:03:15.201Z,68.33
2018-06-12T13:05:42.405Z,68.72
2018-06-12T13:08:16.310Z,69.06
2018-06-12T13:10:43.532Z,68.88
2018-06-12T13:13:10.775Z,69.14
2018-06-12T13:15:38.022Z,68.79
2018-06-12T13:18:05.444Z,70.29
2018-06-12T13:20:32.684Z,69.27
2018-06-12T13:22:59.917Z,68.02
2018-06-12T13:25:27.208Z,67.04
2018-06-12T13:27:54.472Z,69.26
2018-06-12T13:30:21.737Z,68.21
2018-06-12T13:32:48.944Z,68.54
2018-06-12T13:35:16.299Z,70.53
2018-06-12T13:37:43.604Z,70.06
2018-06-12T13:40:10.788Z,71.00
2018-06-12T13:42:38.015Z,70.37
2018-06-12T13:45:05.258Z,70.27
2018-06-12T13:47:32.548Z,69.05
2018-06-12T13:49:59.829Z,67.79
2018-06-12T13:52:27.130Z,66.54
2018-06-12T13:54:54.379Z,68.98
2018-06-12T13:57:21.584Z,70.32
2018-06-12T13:59:48.804Z,69.15
2018-06-12T14:02:16.004Z,69.28
2018-06-12T14:04:43.235Z,71.26
2018-06-12T14:07:10.434Z,71.82
2018-06-12T14:09:37.648Z,72.33
2018-06-12T14:12:04.933Z,73.53
2018-06-12T14:14:32.185Z,73.13
2018-06-12T14:17:00.707Z,73.87
2018-06-12T14:19:28.004Z,73.45
2018-06-12T14:21:55.248Z,74.76
2018-06-12T14:24:22.494Z,73.39
2018-06-12T14:26:49.719Z,74.12
2018-06-12T14:29:16.962Z,73.95
2018-06-12T14:31:44.232Z,74.33
2018-06-12T14:34:11.471Z,74.58
2018-06-12T14:49:38.372Z,74.58
2018-06-12T14:52:05.594Z,75.83
2018-06-12T14:54:32.868Z,75.00
2018-06-12T14:57:00.050Z,75.16
2018-06-12T14:59:27.244Z,75.51
2018-06-12T15:01:54.442Z,74.12
2018-06-12T15:04:21.725Z,72.99
2018-06-12T15:06:48.964Z,71.37
2018-06-12T15:09:16.248Z,71.33
2018-06-12T15:11:43.426Z,72.19
2018-06-12T15:14:10.634Z,70.16
2018-06-12T15:16:37.838Z,71.11
2018-06-12T15:19:05.177Z,69.97
2018-06-12T15:21:32.749Z,69.54
2018-06-12T15:23:59.983Z,69.22
2018-06-12T15:26:27.177Z,69.53
2018-06-12T15:28:54.453Z,67.13
2018-06-12T15:31:21.673Z,68.58
2018-06-12T15:33:48.911Z,70.07
2018-06-12T15:36:16.043Z,68.77
2018-06-12T15:38:43.293Z,69.06
2018-06-12T15:41:10.528Z,67.90
2018-06-12T15:43:37.745Z,68.24
2018-06-12T15:46:05.063Z,67.97
2018-06-12T15:48:32.785Z,69.50
2018-06-12T15:51:00.073Z,69.54
2018-06-12T15:53:27.285Z,68.77
2018-06-12T15:55:54.532Z,69.17
2018-06-12T15:58:21.761Z,68.48
2018-06-12T16:00:49.054Z,68.40
2018-06-12T16:03:16.149Z,69.12
2018-06-12T16:05:43.425Z,70.14
2018-06-12T16:08:10.600Z,71.60
2018-06-12T16:10:37.797Z,72.14
2018-06-12T16:13:05.023Z,71.90
2018-06-12T16:15:32.233Z,73.33
2018-06-12T16:17:59.497Z,73.50
2018-06-12T16:20:26.678Z,72.13
2018-06-12T16:22:53.850Z,72.27
2018-06-12T16:25:21.075Z,73.59
2018-06-12T16:27:48.307Z,73.73
2018-06-12T16:30:15.537Z,74.05
2018-06-12T16:32:42.760Z,74.77
2018-06-12T16:35:10.057Z,73.59
2018-06-12T16:37:37.312Z,74.44
2018-06-12T16:40:04.590Z,74.19
2018-06-12T16:42:31.777Z,74.74
2018-06-12T16:44:59.012Z,74.96
2018-06-12T16:47:26.202Z,76.31
2018-06-12T16:49:53.443Z,76.06
2018-06-12T16:52:20.640Z,76.35
2018-06-12T16:54:47.878Z,76.89
2018-06-12T16:57:15.138Z,77.79
2018-06-12T16:59:42.344Z,76.50
2018-06-12T17:02:09.561Z,77.27
2018-06-12T17:04:36.805Z,76.51
2018-06-12T17:07:04.127Z,77.82
2018-06-12T17:09:31.307Z,78.15
2018-06-12T17:11:58.486Z,79.48
2018-06-12T17:14:25.717Z,79.03
2018-06-12T17:16:52.936Z,78.90
2018-06-12T17:19:20.288Z,78.86
2018-06-12T17:21:47.429Z,79.13
2018-06-12T17:24:14.671Z,79.75
2018-06-12T17:26:41.812Z,80.00
2018-06-12T17:29:09.050Z,79.92
2018-06-12T17:31:36.308Z,80.07
2018-06-12T17:34:03.511Z,80.05
2018-06-12T17:36:30.692Z,80.46
2018-06-12T17:38:57.860Z,79.63
2018-06-12T17:41:25.030Z,79.36
2018-06-12T17:43:52.239Z,79.27
2018-06-12T17:46:19.457Z,79.49
2018-06-12T17:48:46.621Z,79.78
2018-06-12T17:51:13.870Z,80.14
2018-06-12T17:53:41.070Z,79.05
2018-06-12T17:56:08.269Z,78.82
2018-06-12T17:58:35.417Z,79.43
2018-06-12T18:01:02.600Z,79.60
2018-06-12T18:03:29.744Z,79.75
2018-06-12T18:05:57.028Z,80.00
2018-06-12T18:08:24.274Z,79.26
2018-06-12T18:10:51.515Z,78.55
2018-06-12T18:13:18.719Z,77.93
2018-06-12T18:15:45.889Z,78.21
2018-06-12T18:18:13.165Z,79.18
2018-06-12T18:20:44.915Z,78.60
2018-06-12T18:23:12.124Z,78.50
2018-06-12T18:25:39.334Z,78.33
2018-06-12T18:28:06.479Z,77.79
2018-06-12T18:30:33.763Z,77.62
2018-06-12T18:33:00.980Z,77.43
2018-06-12T18:35:28.185Z,77.60
2018-06-12T18:37:55.395Z,76.12
2018-06-12T18:40:22.571Z,76.98
2018-06-12T18:42:49.772Z,76.26
2018-06-12T18:45:16.924Z,76.02
2018-06-12T18:47:44.096Z,76.12
2018-06-12T18:50:11.289Z,75.41
2018-06-12T18:52:38.439Z,75.15
2018-06-12T18:55:05.644Z,74.96
2018-06-12T18:57:32.821Z,75.41
2018-06-12T18:59:59.964Z,75.08
2018-06-12T19:02:27.153Z,76.17
2018-06-12T19:04:54.350Z,75.11
2018-06-12T19:07:21.530Z,76.42
2018-06-12T19:09:48.680Z,75.49
2018-06-12T19:12:15.861Z,75.89
2018-06-12T19:14:43.042Z,75.73
2018-06-12T19:17:10.280Z,76.08
2018-06-12T19:19:37.467Z,76.16
2018-06-12T19:22:04.700Z,76.17
2018-06-12T19:24:31.862Z,77.49
2018-06-12T19:26:59.017Z,77.51
2018-06-12T19:29:26.134Z,77.07
2018-06-12T19:31:53.388Z,76.29
2018-06-12T19:34:20.548Z,76.97
2018-06-12T19:36:47.687Z,76.04
2018-06-12T19:39:14.901Z,77.77
2018-06-12T19:41:42.072Z,77.06
2018-06-12T19:44:09.277Z,77.24
2018-06-12T19:46:36.451Z,77.12
2018-06-12T19:49:03.623Z,77.82
2018-06-12T19:51:30.789Z,78.20
2018-06-12T19:53:58.030Z,77.82
2018-06-12T19:56:25.161Z,78.48
2018-06-12T19:58:52.352Z,77.38
2018-06-12T20:01:19.524Z,76.83
2018-06-12T20:03:46.710Z,78.28
2018-06-12T20:06:13.902Z,76.85
2018-06-12T20:08:41.016Z,77.00
2018-06-12T20:11:08.220Z,76.61
2018-06-12T20:13:35.421Z,77.46
2018-06-12T20:16:02.605Z,78.42
2018-06-12T20:18:29.848Z,77.22
2018-06-12T20:20:56.985Z,77.58
2018-06-12T20:23:24.152Z,77.79
2018-06-12T20:25:51.294Z,77.22
2018-06-12T20:28:18.474Z,77.31
2018-06-12T20:30:45.692Z,77.17
2018-06-12T20:33:12.900Z,77.68
2018-06-12T20:35:40.005Z,77.25
2018-06-12T20:38:07.176Z,78.00
2018-06-12T20:40:34.323Z,77.32
2018-06-12T20:43:01.524Z,77.17
2018-06-12T20:45:28.708Z,77.15
2018-06-12T20:47:55.888Z,76.49
2018-06-12T20:50:23.089Z,76.40
2018-06-12T20:52:50.292Z,76.05
2018-06-12T20:55:17.497Z,76.92
2018-06-12T20:57:44.697Z,76.37
2018-06-12T21:00:12.055Z,76.49
2018-06-12T21:02:39.183Z,78.13
2018-06-12T21:05:06.577Z,76.90
2018-06-12T21:07:33.887Z,77.38
2018-06-12T21:10:01.188Z,76.73
2018-06-12T21:12:28.432Z,76.55
2018-06-12T21:14:55.596Z,77.18
2018-06-12T21:17:22.817Z,77.34
2018-06-12T21:19:50.061Z,77.40
2018-06-12T21:22:17.278Z,77.74
2018-06-12T21:24:44.500Z,76.98
2018-06-12T21:27:11.685Z,77.08
2018-06-12T21:29:38.915Z,77.41
2018-06-12T21:32:06.131Z,77.85
2018-06-12T21:34:33.301Z,77.78
2018-06-12T21:37:00.454Z,78.12
2018-06-12T21:39:27.644Z,78.32
2018-06-12T21:41:54.869Z,79.01
2018-06-12T21:44:22.102Z,78.38
2018-06-12T21:46:49.305Z,78.51
2018-06-12T21:49:16.460Z,78.67
2018-06-12T21:51:43.914Z,78.82
2018-06-12T21:54:11.100Z,78.61
2018-06-12T21:56:38.290Z,78.78
2018-06-12T21:59:05.521Z,78.79
2018-06-12T22:01:32.720Z,78.27
2018-06-12T22:03:59.899Z,78.54
2018-06-12T22:06:27.076Z,79.05
2018-06-12T22:08:54.274Z,78.60
2018-06-12T22:11:21.429Z,78.43
2018-06-12T22:13:48.651Z,79.40
2018-06-12T22:16:20.976Z,78.51
2018-06-12T22:18:48.694Z,78.40
2018-06-12T22:21:15.900Z,78.73
2018-06-12T22:23:43.108Z,79.74
2018-06-12T22:26:10.275Z,79.37
2018-06-12T22:28:37.470Z,79.26
2018-06-12T22:31:04.634Z,79.22
2018-06-12T22:33:31.848Z,79.16
2018-06-12T22:35:59.018Z,78.79
2018-06-12T22:38:26.209Z,77.81
2018-06-12T22:40:53.400Z,78.17
2018-06-12T22:43:20.562Z,77.73
2018-06-12T22:45:47.758Z,77.77
2018-06-12T22:48:14.953Z,77.65
2018-06-12T22:50:42.145Z,77.50
2018-06-12T22:53:09.362Z,77.40
2018-06-12T22:55:36.558Z,77.20
2018-06-12T22:58:03.737Z,76.97
2018-06-12T23:00:30.908Z,76.71
2018-06-12T23:02:58.099Z,76.49
2018-06-12T23:05:25.217Z,76.50
2018-06-12T23:07:52.553Z,76.63
2018-06-12T23:10:19.726Z,76.77
2018-06-12T23:12:46.939Z,76.65
2018-06-12T23:15:14.141Z,76.40
2018-06-12T23:17:41.377Z,76.16
2018-06-12T23:20:19.967Z,76.51
2018-06-12T23:22:47.118Z,75.89
2018-06-12T23:25:14.317Z,76.67
2018-06-12T23:27:41.483Z,76.50
2018-06-12T23:30:08.690Z,77.19
2018-06-12T23:32:35.893Z,76.51
2018-06-12T23:35:03.077Z,76.58
2018-06-12T23:37:30.269Z,76.14
2018-06-12T23:39:57.479Z,75.79
2018-06-12T23:42:24.618Z,76.13
2018-06-12T23:44:51.773Z,75.49
2018-06-12T23:47:18.982Z,76.16
2018-06-12T23:49:46.192Z,75.79
2018-06-12T23:52:13.424Z,75.96
2018-06-12T23:54:40.641Z,76.36
2018-06-12T23:57:07.813Z,76.34
2018-06-12T23:59:35.008Z,76.67
